sensor_id;sensor_type;location;lat;lon;timestamp;pressure;altitude;pressure_sealevel;temperature;humidity
50057;BME280;36875;49.468;11.200;2023-02-05T00:02:08;99938.41;;;25.48;35.60
50057;BME280;36875;49.468;11.200;2023-02-05T00:04:35;99921.84;;;25.29;35.87
50057;BME280;36875;49.468;11.200;2023-02-05T00:07:01;99939.97;;;25.35;36.10
50057;BME280;36875;49.468;11.200;2023-02-05T00:09:28;99937.06;;;25.26;35.96
50057;BME280;36875;49.468;11.200;2023-02-05T00:11:53;99925.25;;;25.20;36.27
50057;BME280;36875;49.468;11.200;2023-02-05T00:14:19;99916.06;;;25.06;36.19
50057;BME280;36875;49.468;11.200;2023-02-05T00:16:44;99948.31;;;25.06;36.64
50057;BME280;36875;49.468;11.200;2023-02-05T00:19:10;99938.19;;;25.01;36.41
50057;BME280;36875;49.468;11.200;2023-02-05T00:21:35;99942.81;;;25.06;36.10
50057;BME280;36875;49.468;11.200;2023-02-05T00:24:01;99947.63;;;24.95;36.02
50057;BME280;36875;49.468;11.200;2023-02-05T00:26:28;99934.59;;;24.81;36.21
50057;BME280;36875;49.468;11.200;2023-02-05T00:28:53;99936.59;;;24.76;36.25
50057;BME280;36875;49.468;11.200;2023-02-05T00:31:20;99929.72;;;24.73;36.53
50057;BME280;36875;49.468;11.200;2023-02-05T00:33:47;99922.88;;;24.71;36.36
50057;BME280;36875;49.468;11.200;2023-02-05T00:36:14;99927.34;;;24.67;36.39
50057;BME280;36875;49.468;11.200;2023-02-05T00:38:39;99926.03;;;24.59;36.60
50057;BME280;36875;49.468;11.200;2023-02-05T00:41:05;99923.28;;;24.59;36.51
50057;BME280;36875;49.468;11.200;2023-02-05T00:43:32;99922.22;;;24.55;36.50
50057;BME280;36875;49.468;11.200;2023-02-05T00:45:57;99910.19;;;24.46;36.51
50057;BME280;36875;49.468;11.200;2023-02-05T00:48:23;99909.44;;;24.40;36.63
50057;BME280;36875;49.468;11.200;2023-02-05T00:50:49;99914.66;;;24.41;36.66
50057;BME280;36875;49.468;11.200;2023-02-05T00:53:15;99913.66;;;24.32;36.92
50057;BME280;36875;49.468;11.200;2023-02-05T00:55:40;99914.22;;;24.29;36.58
50057;BME280;36875;49.468;11.200;2023-02-05T00:58:06;99922.53;;;24.24;36.61
50057;BME280;36875;49.468;11.200;2023-02-05T01:00:33;99915.00;;;24.05;36.81
50057;BME280;36875;49.468;11.200;2023-02-05T01:02:58;99933.41;;;24.10;36.93
50057;BME280;36875;49.468;11.200;2023-02-05T01:05:24;99936.97;;;24.11;36.79
50057;BME280;36875;49.468;11.200;2023-02-05T01:07:49;99944.97;;;24.07;36.85
50057;BME280;36875;49.468;11.200;2023-02-05T01:10:15;99913.84;;;23.88;36.84
50057;BME280;36875;49.468;11.200;2023-02-05T01:12:41;99941.50;;;23.96;37.10
50057;BME280;36875;49.468;11.200;2023-02-05T01:15:08;99942.41;;;23.86;36.93
50057;BME280;36875;49.468;11.200;2023-02-05T01:17:37;99940.84;;;23.80;37.05
50057;BME280;36875;49.468;11.200;2023-02-05T01:20:04;99940.53;;;23.82;36.98
50057;BME280;36875;49.468;11.200;2023-02-05T01:22:30;99939.44;;;23.78;36.89
50057;BME280;36875;49.468;11.200;2023-02-05T01:24:55;99930.69;;;23.71;36.82
50057;BME280;36875;49.468;11.200;2023-02-05T01:27:21;99930.19;;;23.63;37.13
50057;BME280;36875;49.468;11.200;2023-02-05T01:29:46;99924.19;;;23.56;37.00
50057;BME280;36875;49.468;11.200;2023-02-05T01:32:12;99917.88;;;23.56;36.99
50057;BME280;36875;49.468;11.200;2023-02-05T01:34:39;99926.41;;;23.54;36.92
50057;BME280;36875;49.468;11.200;2023-02-05T01:37:04;99908.97;;;23.35;36.91
50057;BME280;36875;49.468;11.200;2023-02-05T01:39:30;99919.94;;;23.40;37.17
50057;BME280;36875;49.468;11.200;2023-02-05T01:41:55;99909.50;;;23.37;37.35
50057;BME280;36875;49.468;11.200;2023-02-05T01:44:21;99916.09;;;23.36;36.89
50057;BME280;36875;49.468;11.200;2023-02-05T01:46:49;99913.94;;;23.33;37.08
50057;BME280;36875;49.468;11.200;2023-02-05T01:49:18;99901.59;;;23.25;37.12
50057;BME280;36875;49.468;11.200;2023-02-05T01:51:47;99902.44;;;23.25;36.87
50057;BME280;36875;49.468;11.200;2023-02-05T01:54:14;99900.53;;;23.21;36.97
50057;BME280;36875;49.468;11.200;2023-02-05T01:56:42;99900.31;;;23.12;37.16
50057;BME280;36875;49.468;11.200;2023-02-05T01:59:12;99898.69;;;23.11;37.12
50057;BME280;36875;49.468;11.200;2023-02-05T02:01:39;99888.53;;;23.06;37.16
50057;BME280;36875;49.468;11.200;2023-02-05T02:04:05;99889.09;;;23.03;36.97
50057;BME280;36875;49.468;11.200;2023-02-05T02:06:32;99886.38;;;22.98;37.09
50057;BME280;36875;49.468;11.200;2023-02-05T02:09:00;99884.47;;;22.94;37.11
50057;BME280;36875;49.468;11.200;2023-02-05T02:11:27;99888.06;;;22.89;37.12
50057;BME280;36875;49.468;11.200;2023-02-05T02:13:55;99868.66;;;22.75;36.90
50057;BME280;36875;49.468;11.200;2023-02-05T02:16:22;99874.13;;;22.80;37.06
50057;BME280;36875;49.468;11.200;2023-02-05T02:18:49;99870.84;;;22.78;37.16
50057;BME280;36875;49.468;11.200;2023-02-05T02:21:28;99868.09;;;22.73;37.13
50057;BME280;36875;49.468;11.200;2023-02-05T02:27:02;99845.69;;;22.56;36.85
50057;BME280;36875;49.468;11.200;2023-02-05T02:29:34;99853.91;;;22.61;37.38
50057;BME280;36875;49.468;11.200;2023-02-05T02:32:07;99856.41;;;22.57;37.22
50057;BME280;36875;49.468;11.200;2023-02-05T02:34:40;99842.41;;;22.54;36.91
50057;BME280;36875;49.468;11.200;2023-02-05T02:37:13;99827.94;;;22.43;37.21
50057;BME280;36875;49.468;11.200;2023-02-05T02:39:44;99833.69;;;22.41;36.92
50057;BME280;36875;49.468;11.200;2023-02-05T02:42:19;99844.38;;;22.43;37.29
50057;BME280;36875;49.468;11.200;2023-02-05T02:44:52;99848.22;;;22.37;37.10
50057;BME280;36875;49.468;11.200;2023-02-05T02:47:24;99838.66;;;22.34;37.17
50057;BME280;36875;49.468;11.200;2023-02-05T02:49:53;99842.47;;;22.33;37.11
50057;BME280;36875;49.468;11.200;2023-02-05T02:52:21;99823.06;;;22.14;36.90
50057;BME280;36875;49.468;11.200;2023-02-05T02:54:51;99847.47;;;22.26;37.08
50057;BME280;36875;49.468;11.200;2023-02-05T02:57:20;99842.25;;;22.19;37.02
50057;BME280;36875;49.468;11.200;2023-02-05T02:59:49;99839.78;;;22.18;36.91
50057;BME280;36875;49.468;11.200;2023-02-05T03:02:18;99844.19;;;22.13;37.22
50057;BME280;36875;49.468;11.200;2023-02-05T03:04:47;99824.72;;;22.00;37.03
50057;BME280;36875;49.468;11.200;2023-02-05T03:07:18;99848.31;;;22.06;37.07
50057;BME280;36875;49.468;11.200;2023-02-05T03:09:48;99811.34;;;21.78;37.19
50057;BME280;36875;49.468;11.200;2023-02-05T03:12:18;99827.78;;;21.83;37.04
50057;BME280;36875;49.468;11.200;2023-02-05T03:14:44;99853.81;;;21.95;37.17
50057;BME280;36875;49.468;11.200;2023-02-05T03:17:11;99848.59;;;21.89;37.15
50057;BME280;36875;49.468;11.200;2023-02-05T03:19:43;99861.22;;;21.90;36.85
50057;BME280;36875;49.468;11.200;2023-02-05T03:22:08;99858.75;;;21.88;37.17
50057;BME280;36875;49.468;11.200;2023-02-05T03:24:34;99852.19;;;21.84;37.11
50057;BME280;36875;49.468;11.200;2023-02-05T03:27:00;99848.09;;;21.82;36.98
50057;BME280;36875;49.468;11.200;2023-02-05T03:29:28;99839.59;;;21.78;37.12
50057;BME280;36875;49.468;11.200;2023-02-05T03:32:02;99840.41;;;21.73;37.13
50057;BME280;36875;49.468;11.200;2023-02-05T03:34:40;99837.13;;;21.71;37.12
50057;BME280;36875;49.468;11.200;2023-02-05T03:37:20;99834.13;;;21.68;37.20
50057;BME280;36875;49.468;11.200;2023-02-05T03:39:56;99830.03;;;21.65;36.87
50057;BME280;36875;49.468;11.200;2023-02-05T03:42:35;99834.94;;;21.63;36.95
50057;BME280;36875;49.468;11.200;2023-02-05T03:45:18;99810.56;;;21.51;37.03
50057;BME280;36875;49.468;11.200;2023-02-05T03:47:57;99821.00;;;21.54;36.86
50057;BME280;36875;49.468;11.200;2023-02-05T03:50:28;99813.84;;;21.48;37.07
50057;BME280;36875;49.468;11.200;2023-02-05T03:53:01;99818.25;;;21.49;37.10
50057;BME280;36875;49.468;11.200;2023-02-05T03:55:35;99812.50;;;21.46;36.73
50057;BME280;36875;49.468;11.200;2023-02-05T03:58:08;99809.44;;;21.42;36.80
50057;BME280;36875;49.468;11.200;2023-02-05T04:00:34;99808.09;;;21.40;37.00
50057;BME280;36875;49.468;11.200;2023-02-05T04:03:00;99798.22;;;21.38;37.10
50057;BME280;36875;49.468;11.200;2023-02-05T04:05:27;99814.38;;;21.35;36.78
50057;BME280;36875;49.468;11.200;2023-02-05T04:07:52;99813.03;;;21.32;36.99
50057;BME280;36875;49.468;11.200;2023-02-05T04:10:18;99813.56;;;21.29;36.79
50057;BME280;36875;49.468;11.200;2023-02-05T04:12:44;99807.81;;;21.26;36.70
50057;BME280;36875;49.468;11.200;2023-02-05T04:15:09;99810.00;;;21.24;36.82
50057;BME280;36875;49.468;11.200;2023-02-05T04:17:35;99810.28;;;21.22;36.62
50057;BME280;36875;49.468;11.200;2023-02-05T04:20:01;99808.91;;;21.20;36.77
50057;BME280;36875;49.468;11.200;2023-02-05T04:22:27;99796.84;;;21.15;36.83
50057;BME280;36875;49.468;11.200;2023-02-05T04:24:53;99805.34;;;21.14;36.86
50057;BME280;36875;49.468;11.200;2023-02-05T04:27:18;99802.59;;;21.09;36.61
50057;BME280;36875;49.468;11.200;2023-02-05T04:29:44;99797.94;;;21.04;37.04
50057;BME280;36875;49.468;11.200;2023-02-05T04:32:09;99799.84;;;21.04;36.77
50057;BME280;36875;49.468;11.200;2023-02-05T04:34:35;99803.13;;;21.01;36.79
50057;BME280;36875;49.468;11.200;2023-02-05T04:37:00;99805.31;;;20.98;36.77
50057;BME280;36875;49.468;11.200;2023-02-05T04:39:27;99808.63;;;20.95;36.87
50057;BME280;36875;49.468;11.200;2023-02-05T04:41:53;99797.13;;;20.88;37.02
50057;BME280;36875;49.468;11.200;2023-02-05T04:44:18;99810.53;;;20.90;36.52
50057;BME280;36875;49.468;11.200;2023-02-05T04:46:44;99829.09;;;20.88;36.93
50057;BME280;36875;49.468;11.200;2023-02-05T04:49:09;99825.00;;;20.85;36.80
50057;BME280;36875;49.468;11.200;2023-02-05T04:51:35;99832.66;;;20.83;36.83
50057;BME280;36875;49.468;11.200;2023-02-05T04:54:00;99827.72;;;20.80;36.82
50057;BME280;36875;49.468;11.200;2023-02-05T04:56:28;99815.13;;;20.69;36.73
50057;BME280;36875;49.468;11.200;2023-02-05T04:58:53;99830.44;;;20.75;36.93
50057;BME280;36875;49.468;11.200;2023-02-05T05:01:20;99829.88;;;20.73;36.53
50057;BME280;36875;49.468;11.200;2023-02-05T05:03:46;99832.34;;;20.69;36.65
50057;BME280;36875;49.468;11.200;2023-02-05T05:06:12;99824.16;;;20.64;36.73
50057;BME280;36875;49.468;11.200;2023-02-05T05:08:38;99822.75;;;20.62;36.74
50057;BME280;36875;49.468;11.200;2023-02-05T05:11:06;99827.97;;;20.63;36.56
50057;BME280;36875;49.468;11.200;2023-02-05T05:13:33;99815.31;;;20.52;36.43
50057;BME280;36875;49.468;11.200;2023-02-05T05:16:00;99826.28;;;20.57;36.71
50057;BME280;36875;49.468;11.200;2023-02-05T05:18:25;99831.19;;;20.55;36.53
50057;BME280;36875;49.468;11.200;2023-02-05T05:20:51;99830.06;;;20.51;36.59
50057;BME280;36875;49.468;11.200;2023-02-05T05:23:16;99824.03;;;20.49;36.45
50057;BME280;36875;49.468;11.200;2023-02-05T05:25:42;99819.94;;;20.46;36.81
50057;BME280;36875;49.468;11.200;2023-02-05T05:28:08;99825.94;;;20.43;36.64
50057;BME280;36875;49.468;11.200;2023-02-05T05:30:36;99821.84;;;20.40;36.45
50057;BME280;36875;49.468;11.200;2023-02-05T05:33:02;99824.28;;;20.37;36.30
50057;BME280;36875;49.468;11.200;2023-02-05T05:35:28;99811.41;;;20.32;36.33
50057;BME280;36875;49.468;11.200;2023-02-05T05:37:55;99824.81;;;20.34;36.32
50057;BME280;36875;49.468;11.200;2023-02-05T05:40:20;99827.00;;;20.32;36.52
50057;BME280;36875;49.468;11.200;2023-02-05T05:43:04;99829.44;;;20.28;36.11
50057;BME280;36875;49.468;11.200;2023-02-05T05:45:51;99822.03;;;20.18;36.38
50057;BME280;36875;49.468;11.200;2023-02-05T05:48:16;99829.41;;;20.23;36.15
50057;BME280;36875;49.468;11.200;2023-02-05T05:50:42;99824.19;;;20.21;36.62
50057;BME280;36875;49.468;11.200;2023-02-05T05:53:07;99820.34;;;20.17;36.52
50057;BME280;36875;49.468;11.200;2023-02-05T05:55:33;99817.88;;;20.16;36.54
50057;BME280;36875;49.468;11.200;2023-02-05T05:57:58;99819.25;;;20.13;36.37
50057;BME280;36875;49.468;11.200;2023-02-05T06:00:24;99805.28;;;20.10;36.23
50057;BME280;36875;49.468;11.200;2023-02-05T06:02:50;99812.69;;;20.09;36.18
50057;BME280;36875;49.468;11.200;2023-02-05T06:05:16;99811.53;;;20.05;36.39
50057;BME280;36875;49.468;11.200;2023-02-05T06:07:41;99796.72;;;19.96;36.12
50057;BME280;36875;49.468;11.200;2023-02-05T06:10:07;99819.44;;;20.01;36.51
50057;BME280;36875;49.468;11.200;2023-02-05T06:12:33;99818.88;;;19.99;36.42
50057;BME280;36875;49.468;11.200;2023-02-05T06:14:58;99832.84;;;19.98;35.89
50057;BME280;36875;49.468;11.200;2023-02-05T06:17:23;99812.78;;;19.82;36.39
50057;BME280;36875;49.468;11.200;2023-02-05T06:19:50;99828.16;;;19.93;36.07
50057;BME280;36875;49.468;11.200;2023-02-05T06:22:16;99828.41;;;19.92;36.17
50057;BME280;36875;49.468;11.200;2023-02-05T06:24:41;99816.38;;;19.88;36.30
50057;BME280;36875;49.468;11.200;2023-02-05T06:27:07;99822.91;;;19.87;36.04
50057;BME280;36875;49.468;11.200;2023-02-05T06:29:32;99814.16;;;19.84;36.36
50057;BME280;36875;49.468;11.200;2023-02-05T06:31:58;99803.78;;;19.81;36.29
50057;BME280;36875;49.468;11.200;2023-02-05T06:34:23;99804.25;;;19.73;36.14
50057;BME280;36875;49.468;11.200;2023-02-05T06:36:50;99819.03;;;19.77;35.98
50057;BME280;36875;49.468;11.200;2023-02-05T06:39:15;99788.59;;;19.63;35.83
50057;BME280;36875;49.468;11.200;2023-02-05T06:41:41;99810.53;;;19.74;36.22
50057;BME280;36875;49.468;11.200;2023-02-05T06:44:06;99797.41;;;19.71;36.04
50057;BME280;36875;49.468;11.200;2023-02-05T06:46:32;99800.91;;;19.66;36.09
50057;BME280;36875;49.468;11.200;2023-02-05T06:48:57;99800.91;;;19.66;36.00
50057;BME280;36875;49.468;11.200;2023-02-05T06:51:23;99771.31;;;19.53;35.90
50057;BME280;36875;49.468;11.200;2023-02-05T06:53:50;99796.75;;;19.58;35.73
50057;BME280;36875;49.468;11.200;2023-02-05T06:56:16;99788.22;;;19.50;36.17
50057;BME280;36875;49.468;11.200;2023-02-05T06:58:42;99791.00;;;19.55;36.07
50057;BME280;36875;49.468;11.200;2023-02-05T07:01:07;99799.75;;;19.57;36.10
50057;BME280;36875;49.468;11.200;2023-02-05T07:03:33;99810.66;;;19.57;36.05
50057;BME280;36875;49.468;11.200;2023-02-05T07:06:02;99806.56;;;19.54;35.79
50057;BME280;36875;49.468;11.200;2023-02-05T07:08:28;99802.44;;;19.52;35.83
50057;BME280;36875;49.468;11.200;2023-02-05T07:10:55;99813.66;;;19.50;35.87
50057;BME280;36875;49.468;11.200;2023-02-05T07:13:20;99822.09;;;19.49;35.69
50057;BME280;36875;49.468;11.200;2023-02-05T07:15:46;99825.09;;;19.47;35.90
50057;BME280;36875;49.468;11.200;2023-02-05T07:18:11;99820.69;;;19.41;35.68
50057;BME280;36875;49.468;11.200;2023-02-05T07:20:37;99823.13;;;19.42;35.84
50057;BME280;36875;49.468;11.200;2023-02-05T07:23:02;99832.41;;;19.41;36.06
50057;BME280;36875;49.468;11.200;2023-02-05T07:25:29;99824.72;;;19.38;35.64
50057;BME280;36875;49.468;11.200;2023-02-05T07:28:01;99820.88;;;19.34;35.54
50057;BME280;36875;49.468;11.200;2023-02-05T07:30:27;99820.31;;;19.32;35.88
50057;BME280;36875;49.468;11.200;2023-02-05T07:32:52;99811.03;;;19.33;35.98
50057;BME280;36875;49.468;11.200;2023-02-05T07:35:18;99793.78;;;19.27;36.04
50057;BME280;36875;49.468;11.200;2023-02-05T07:37:44;99790.53;;;19.31;36.01
50057;BME280;36875;49.468;11.200;2023-02-05T07:40:10;99793.53;;;19.29;35.90
50057;BME280;36875;49.468;11.200;2023-02-05T07:42:35;99786.66;;;19.21;35.75
50057;BME280;36875;49.468;11.200;2023-02-05T07:45:03;99794.03;;;19.26;35.49
50057;BME280;36875;49.468;11.200;2023-02-05T07:47:29;99785.31;;;19.24;36.00
50057;BME280;36875;49.468;11.200;2023-02-05T07:49:54;99784.47;;;19.23;35.87
50057;BME280;36875;49.468;11.200;2023-02-05T07:52:20;99745.84;;;19.04;35.50
50057;BME280;36875;49.468;11.200;2023-02-05T07:54:45;99772.50;;;19.24;35.65
50057;BME280;36875;49.468;11.200;2023-02-05T07:57:11;99770.56;;;19.25;35.45
50057;BME280;36875;49.468;11.200;2023-02-05T07:59:36;99768.06;;;19.18;35.83
50057;BME280;36875;49.468;11.200;2023-02-05T08:02:03;99763.72;;;19.22;35.46
50057;BME280;36875;49.468;11.200;2023-02-05T08:04:29;99737.44;;;19.11;35.68
50057;BME280;36875;49.468;11.200;2023-02-05T08:06:54;99756.41;;;19.28;35.62
50057;BME280;36875;49.468;11.200;2023-02-05T08:09:19;99758.56;;;19.26;35.73
50057;BME280;36875;49.468;11.200;2023-02-05T08:11:45;99756.69;;;19.26;35.61
50057;BME280;36875;49.468;11.200;2023-02-05T08:14:11;99754.19;;;19.25;35.54
50057;BME280;36875;49.468;11.200;2023-02-05T08:16:36;99755.28;;;19.24;35.58
50057;BME280;36875;49.468;11.200;2023-02-05T08:19:05;99696.91;;;18.93;35.58
50057;BME280;36875;49.468;11.200;2023-02-05T08:21:31;99734.53;;;19.23;35.64
50057;BME280;36875;49.468;11.200;2023-02-05T08:23:56;99730.97;;;19.22;35.80
50057;BME280;36875;49.468;11.200;2023-02-05T08:26:23;99728.22;;;19.17;35.71
50057;BME280;36875;49.468;11.200;2023-02-05T08:28:49;99721.91;;;19.12;35.83
50057;BME280;36875;49.468;11.200;2023-02-05T08:31:17;99718.63;;;19.15;36.18
50057;BME280;36875;49.468;11.200;2023-02-05T08:33:42;99719.19;;;19.12;36.06
50057;BME280;36875;49.468;11.200;2023-02-05T08:36:10;99722.41;;;19.09;36.25
50057;BME280;36875;49.468;11.200;2023-02-05T08:38:38;99689.22;;;18.84;35.98
50057;BME280;36875;49.468;11.200;2023-02-05T08:41:05;99713.06;;;18.99;36.09
50057;BME280;36875;49.468;11.200;2023-02-05T08:43:37;99706.25;;;18.97;36.66
50057;BME280;36875;49.468;11.200;2023-02-05T08:46:03;99716.88;;;18.98;36.67
50057;BME280;36875;49.468;11.200;2023-02-05T08:48:29;99721.50;;;18.98;36.56
50057;BME280;36875;49.468;11.200;2023-02-05T08:50:54;99721.81;;;19.01;36.65
50057;BME280;36875;49.468;11.200;2023-02-05T08:53:21;99733.22;;;18.98;36.74
50057;BME280;36875;49.468;11.200;2023-02-05T08:55:53;99729.13;;;18.96;36.47
50057;BME280;36875;49.468;11.200;2023-02-05T08:58:19;99710.09;;;19.01;37.08
50057;BME280;36875;49.468;11.200;2023-02-05T09:00:44;99725.41;;;19.07;36.74
50057;BME280;36875;49.468;11.200;2023-02-05T09:03:10;99721.84;;;19.06;36.62
50057;BME280;36875;49.468;11.200;2023-02-05T09:05:37;99716.97;;;19.09;36.80
50057;BME280;36875;49.468;11.200;2023-02-05T09:08:03;99718.69;;;19.20;36.51
50057;BME280;36875;49.468;11.200;2023-02-05T09:10:30;99705.38;;;19.29;36.61
50057;BME280;36875;49.468;11.200;2023-02-05T09:12:55;99706.78;;;19.36;37.31
50057;BME280;36875;49.468;11.200;2023-02-05T09:15:20;99705.50;;;19.49;37.19
50057;BME280;36875;49.468;11.200;2023-02-05T09:17:46;99685.88;;;19.57;37.33
50057;BME280;36875;49.468;11.200;2023-02-05T09:20:12;99683.81;;;19.75;37.17
50057;BME280;36875;49.468;11.200;2023-02-05T09:22:37;99686.59;;;19.90;37.35
50057;BME280;36875;49.468;11.200;2023-02-05T09:25:04;99677.06;;;20.03;36.77
50057;BME280;36875;49.468;11.200;2023-02-05T09:27:34;99659.59;;;20.14;36.95
50057;BME280;36875;49.468;11.200;2023-02-05T09:29:59;99658.84;;;20.34;36.01
50057;BME280;36875;49.468;11.200;2023-02-05T09:32:25;99653.13;;;20.51;34.80
50057;BME280;36875;49.468;11.200;2023-02-05T09:34:50;99635.88;;;20.51;34.38
50057;BME280;36875;49.468;11.200;2023-02-05T09:37:16;99654.25;;;20.71;34.04
50057;BME280;36875;49.468;11.200;2023-02-05T09:39:42;99656.97;;;20.91;33.74
50057;BME280;36875;49.468;11.200;2023-02-05T09:42:12;99664.06;;;21.08;33.50
50057;BME280;36875;49.468;11.200;2023-02-05T09:44:52;99659.13;;;21.20;33.31
50057;BME280;36875;49.468;11.200;2023-02-05T09:47:24;99667.34;;;21.30;33.30
50057;BME280;36875;49.468;11.200;2023-02-05T09:49:59;99648.19;;;21.25;32.91
50057;BME280;36875;49.468;11.200;2023-02-05T09:52:30;99656.38;;;21.30;32.40
50057;BME280;36875;49.468;11.200;2023-02-05T09:55:00;99645.41;;;21.35;32.22
50057;BME280;36875;49.468;11.200;2023-02-05T09:57:32;99639.34;;;21.54;32.28
50057;BME280;36875;49.468;11.200;2023-02-05T10:00:00;99633.06;;;21.53;32.46
50057;BME280;36875;49.468;11.200;2023-02-05T10:02:33;99646.50;;;21.45;32.29
50057;BME280;36875;49.468;11.200;2023-02-05T10:05:01;99639.38;;;21.44;30.85
50057;BME280;36875;49.468;11.200;2023-02-05T10:07:37;99643.25;;;21.32;30.59
50057;BME280;36875;49.468;11.200;2023-02-05T10:10:16;99594.84;;;21.02;31.11
50057;BME280;36875;49.468;11.200;2023-02-05T10:12:56;99644.31;;;21.31;31.76
50057;BME280;36875;49.468;11.200;2023-02-05T10:15:34;99648.41;;;21.49;31.47
50057;BME280;36875;49.468;11.200;2023-02-05T10:18:11;99628.16;;;21.45;31.86
50057;BME280;36875;49.468;11.200;2023-02-05T10:20:49;99639.66;;;21.47;32.32
50057;BME280;36875;49.468;11.200;2023-02-05T10:23:27;99625.09;;;21.62;32.74
50057;BME280;36875;49.468;11.200;2023-02-05T10:26:04;99629.41;;;21.79;32.48
50057;BME280;36875;49.468;11.200;2023-02-05T10:29:02;99626.31;;;21.90;32.85
50057;BME280;36875;49.468;11.200;2023-02-05T10:31:43;99623.41;;;22.16;32.94
50057;BME280;36875;49.468;11.200;2023-02-05T10:34:33;99623.13;;;22.23;33.03
50057;BME280;36875;49.468;11.200;2023-02-05T10:37:07;99605.50;;;22.34;32.98
50057;BME280;36875;49.468;11.200;2023-02-05T10:39:36;99607.06;;;22.45;32.94
50057;BME280;36875;49.468;11.200;2023-02-05T10:42:05;99596.38;;;22.44;33.18
50057;BME280;36875;49.468;11.200;2023-02-05T10:44:35;99586.94;;;22.55;32.84
50057;BME280;36875;49.468;11.200;2023-02-05T10:47:09;99593.41;;;22.69;32.94
50057;BME280;36875;49.468;11.200;2023-02-05T10:49:43;99594.81;;;22.67;33.00
50057;BME280;36875;49.468;11.200;2023-02-05T10:52:11;99561.19;;;22.51;32.54
50057;BME280;36875;49.468;11.200;2023-02-05T10:54:39;99590.88;;;22.78;32.72
50057;BME280;36875;49.468;11.200;2023-02-05T10:57:11;99585.88;;;22.85;32.48
50057;BME280;36875;49.468;11.200;2023-02-05T10:59:48;99548.25;;;22.57;32.39
50057;BME280;36875;49.468;11.200;2023-02-05T11:02:16;99586.81;;;23.00;32.43
50057;BME280;36875;49.468;11.200;2023-02-05T11:04:45;99584.81;;;23.11;32.32
50057;BME280;36875;49.468;11.200;2023-02-05T11:07:13;99581.75;;;23.12;32.11
50057;BME280;36875;49.468;11.200;2023-02-05T11:09:40;99573.22;;;23.14;32.28
50057;BME280;36875;49.468;11.200;2023-02-05T11:12:26;99562.66;;;23.26;32.14
50057;BME280;36875;49.468;11.200;2023-02-05T11:14:58;99565.06;;;23.33;32.02
50057;BME280;36875;49.468;11.200;2023-02-05T11:17:30;99558.50;;;23.28;32.21
50057;BME280;36875;49.468;11.200;2023-02-05T11:19:59;99563.31;;;23.18;32.22
50057;BME280;36875;49.468;11.200;2023-02-05T11:22:27;99564.84;;;23.05;31.96
50057;BME280;36875;49.468;11.200;2023-02-05T11:25:03;99537.88;;;22.83;31.58
50057;BME280;36875;49.468;11.200;2023-02-05T11:27:30;99559.69;;;22.93;32.50
50057;BME280;36875;49.468;11.200;2023-02-05T11:29:57;99532.22;;;22.69;33.21
50057;BME280;36875;49.468;11.200;2023-02-05T11:32:35;99566.34;;;22.87;33.70
50057;BME280;36875;49.468;11.200;2023-02-05T11:35:19;99573.22;;;22.84;34.21
50057;BME280;36875;49.468;11.200;2023-02-05T11:37:47;99559.09;;;22.72;34.11
50057;BME280;36875;49.468;11.200;2023-02-05T11:40:18;99567.16;;;22.87;34.08
50057;BME280;36875;49.468;11.200;2023-02-05T11:42:46;99567.94;;;22.93;34.20
50057;BME280;36875;49.468;11.200;2023-02-05T11:45:16;99570.06;;;23.01;33.96
50057;BME280;36875;49.468;11.200;2023-02-05T11:47:45;99558.22;;;23.06;34.00
50057;BME280;36875;49.468;11.200;2023-02-05T11:50:20;99562.38;;;23.27;34.62
50057;BME280;36875;49.468;11.200;2023-02-05T11:52:48;99558.66;;;23.37;34.21
50057;BME280;36875;49.468;11.200;2023-02-05T11:55:23;99564.16;;;23.37;34.14
50057;BME280;36875;49.468;11.200;2023-02-05T11:57:57;99570.41;;;23.43;33.85
50057;BME280;36875;49.468;11.200;2023-02-05T12:00:23;99561.66;;;23.41;34.01
50057;BME280;36875;49.468;11.200;2023-02-05T12:03:01;99551.34;;;23.33;34.11
50057;BME280;36875;49.468;11.200;2023-02-05T12:05:30;99538.28;;;23.19;34.15
50057;BME280;36875;49.468;11.200;2023-02-05T12:08:00;99546.13;;;23.31;34.09
50057;BME280;36875;49.468;11.200;2023-02-05T12:10:32;99552.94;;;23.34;34.10
50057;BME280;36875;49.468;11.200;2023-02-05T12:13:09;99550.88;;;23.25;34.12
50057;BME280;36875;49.468;11.200;2023-02-05T12:15:44;99539.88;;;23.25;34.32
50057;BME280;36875;49.468;11.200;2023-02-05T12:18:24;99537.19;;;23.20;34.24
50057;BME280;36875;49.468;11.200;2023-02-05T12:21:05;99528.13;;;23.20;34.26
50057;BME280;36875;49.468;11.200;2023-02-05T12:26:50;99512.81;;;23.14;34.46
50057;BME280;36875;49.468;11.200;2023-02-05T12:29:45;99507.44;;;23.27;34.17
50057;BME280;36875;49.468;11.200;2023-02-05T12:32:18;99504.19;;;23.25;34.07
50057;BME280;36875;49.468;11.200;2023-02-05T12:35:02;99496.97;;;23.29;33.94
50057;BME280;36875;49.468;11.200;2023-02-05T12:37:40;99466.13;;;23.14;33.89
50057;BME280;36875;49.468;11.200;2023-02-05T12:40:20;99497.09;;;23.19;33.91
50057;BME280;36875;49.468;11.200;2023-02-05T12:42:53;99493.75;;;23.22;33.55
50057;BME280;36875;49.468;11.200;2023-02-05T12:45:34;99465.25;;;23.18;33.26
50057;BME280;36875;49.468;11.200;2023-02-05T12:48:15;99462.50;;;23.18;33.62
50057;BME280;36875;49.468;11.200;2023-02-05T12:50:52;99473.97;;;23.25;33.56
50057;BME280;36875;49.468;11.200;2023-02-05T12:53:32;99468.25;;;23.22;33.52
50057;BME280;36875;49.468;11.200;2023-02-05T12:56:14;99475.06;;;23.24;33.84
50057;BME280;36875;49.468;11.200;2023-02-05T12:58:44;99470.69;;;23.23;33.89
50057;BME280;36875;49.468;11.200;2023-02-05T13:01:13;99464.25;;;23.33;33.86
50057;BME280;36875;49.468;11.200;2023-02-05T13:03:42;99461.56;;;23.28;34.11
50057;BME280;36875;49.468;11.200;2023-02-05T13:06:15;99470.09;;;23.26;33.97